Terminal Aerodrome Forecast
Issued by NWS Cleveland, OH

Home | Current Version | Previous Version | Graphics & Text | Print | Product List | Glossary On
Versions: 1 2 3 4 5 6 7 8 9 10 11 12 13 14 15 16 17 18 19 20 21 22 23 24 25
687
FTUS41 KCLE 150903 AAA
TAFCLE
TAF AMD
KCLE 150903Z 1509/1612 19004KT P6SM SCT250
     FM151700 29006KT P6SM SCT060
     FM152300 35004KT P6SM SCT250
     FM160800 05004KT P6SM SCT040=

USA.gov is the U.S. government's official web portal to all federal, state and local government web resources and services.